Main page
METAR-TAF:

METAR-TAF

Airports :

Sandane Airport. Anda

Sandane, Norway

latitude: 61-50N, longitude: 006-07E, elevation: 6 m

Current weather observation

The report was made 7 hours and 2 minutes ago, at 21:20 UTC
Wind 2 kt from the East, varying between North/Northeast and South/Southeast
Temperature -2°C
Humidity 93%
Pressure 1000 hPa
Visibility 10 km or more
Few clouds at a height of 4200 ft
Scattered clouds at a height of 4800 ft

METAR: ENSD 242120Z 08002KT 030V150 9999 FEW042 SCT048 M02/M03 Q1000 RMK WIND 1138FT 13003KT

Time: 05:22 (04:22 UTC)


TAF: missing

Weather observations and forecasts of more than 4000 airports (METAR and TAF reports).

The available stations are represented by yellow and red dots on the map.

Hover mouse over dot to see the name of the station.

Then click to see weather observations and forecasts.

To change the map : click on the green buttons with a black cross to zoom in, on the green button with a dash to zoom out, or on the green arrows for adjacent maps.


METAR-TAF: